Terminal Aerodrome Forecast
Issued by NWS

Home | Current Version | Previous Version | Text Only | Print | Product List | Glossary On
Versions: 1 2 3 4 5 6 7 8 9 10 11 12 13 14 15 16 17 18 19 20 21 22 23 24 25 26 27 28
000
FTPQ31 PGUM 120854 AAJ
TAFTRO
TAF AMD

TAF AMD
PTPN 120853Z 1209/1306 05011KT P6SM VCSH SCT017 SCT030 BKN130
      TEMPO 1209/1213 5SM SHRA BKN016 BKN120 OVC300=

USA.gov is the U.S. government's official web portal to all federal, state and local government web resources and services.